logo dgac
Sábado 16 de Febrero del 2019

Metar

Buscar por aerodromo o helipuerto
Ingrese nombre de aeródromo, localidad o designador OACI:


SPECI del 16-02-2019 a las 10:22 UTC
SPECI SCSN 161022Z AUTO 32006KT 280V360 9999 BKN010 OVC014 17/15 Q1016
Nan: AUTO
Viento: dirección 320 grados, velocidad 6 nudos
Viento con dirección variable entre 280 y 360 grados
Visibilidad: 10 km o más
Nubes: Nublado a 1000 pies sobre el nivel del aeródromo
Nubes: Cubierto a 1400 pies sobre el nivel del aeródromo
Temperatura: 17 °C
Rocío: 15 °C
Humedad_relativa: 88%
Presión: 1016 hPa
SPECI del 16-02-2019 a las 10:11 UTC
SPECI SCSN 161011Z AUTO 32005KT 280V360 9999 FEW010 BKN012 OVC016 17/15 Q1016
Nan: AUTO
Viento: dirección 320 grados, velocidad 5 nudos
Viento con dirección variable entre 280 y 360 grados
Visibilidad: 10 km o más
Nubes: Escasa nubosidad a 1000 pies sobre el nivel del aeródromo
Nubes: Nublado a 1200 pies sobre el nivel del aeródromo
Nubes: Cubierto a 1600 pies sobre el nivel del aeródromo
Temperatura: 17 °C
Rocío: 15 °C
Humedad_relativa: 88%
Presión: 1016 hPa
METAR del 16-02-2019 a las 10:00 UTC
METAR SAZS 161000Z 18004KT CAVOK 11/03 Q1015
Viento: dirección 180 grados, velocidad 4 nudos
Visibilidad: 10 km o más,
    sin nubes bajo los 5.000 pies o bajo del MSA (Mínimo de Seguridad del Aeródromo),
    sin cumulonimbus, y sin fenómenos de tiempo significativo en el aeródromo o alrededores
Temperatura: 11 °C
Rocío: 3 °C
Humedad_relativa: 58%
Presión: 1015 hPa
METAR del 16-02-2019 a las 10:00 UTC
METAR SAWH 161000Z 23036G49KT 9999 FEW040 10/00 Q0982
Viento: dirección 230 grados, velocidad 36 nudos, con ráfagas de velocidad máxima de 49Nudos
Visibilidad: 10 km o más
Nubes: Escasa nubosidad a 4000 pies sobre el nivel del aeródromo
Temperatura: 10 °C
Rocío: 0 °C
Humedad_relativa: 50%
Presión: 982 hPa
METAR del 16-02-2019 a las 10:00 UTC
METAR SASA 161000Z 18002KT CAVOK 14/12 Q1019
Viento: dirección 180 grados, velocidad 2 nudos
Visibilidad: 10 km o más,
    sin nubes bajo los 5.000 pies o bajo del MSA (Mínimo de Seguridad del Aeródromo),
    sin cumulonimbus, y sin fenómenos de tiempo significativo en el aeródromo o alrededores
Temperatura: 14 °C
Rocío: 12 °C
Humedad_relativa: 88%
Presión: 1019 hPa
METAR del 16-02-2019 a las 10:00 UTC
METAR SAZN 161000Z NIL
Nan: NIL
METAR del 16-02-2019 a las 10:00 UTC
METAR SAZM 161000Z 29005KT CAVOK 17/15 Q1014
Viento: dirección 290 grados, velocidad 5 nudos
Visibilidad: 10 km o más,
    sin nubes bajo los 5.000 pies o bajo del MSA (Mínimo de Seguridad del Aeródromo),
    sin cumulonimbus, y sin fenómenos de tiempo significativo en el aeródromo o alrededores
Temperatura: 17 °C
Rocío: 15 °C
Humedad_relativa: 88%
Presión: 1014 hPa
METAR del 16-02-2019 a las 10:00 UTC
METAR SASJ 161000Z 29006KT CAVOK 16/15 Q1018
Viento: dirección 290 grados, velocidad 6 nudos
Visibilidad: 10 km o más,
    sin nubes bajo los 5.000 pies o bajo del MSA (Mínimo de Seguridad del Aeródromo),
    sin cumulonimbus, y sin fenómenos de tiempo significativo en el aeródromo o alrededores
Temperatura: 16 °C
Rocío: 15 °C
Humedad_relativa: 94%
Presión: 1018 hPa
METAR del 16-02-2019 a las 10:00 UTC
METAR SAVC 161000Z 29014KT 240V330 CAVOK 23/07 Q1005
Viento: dirección 290 grados, velocidad 14 nudos
Viento con dirección variable entre 240 y 330 grados
Visibilidad: 10 km o más,
    sin nubes bajo los 5.000 pies o bajo del MSA (Mínimo de Seguridad del Aeródromo),
    sin cumulonimbus, y sin fenómenos de tiempo significativo en el aeródromo o alrededores
Temperatura: 23 °C
Rocío: 7 °C
Humedad_relativa: 36%
Presión: 1005 hPa
METAR del 16-02-2019 a las 10:00 UTC
METAR SLVR 161000Z 21004KT 9999 FEW015 SCT070 BKN200 23/20 Q1013
Viento: dirección 210 grados, velocidad 4 nudos
Visibilidad: 10 km o más
Nubes: Escasa nubosidad a 1500 pies sobre el nivel del aeródromo
Nubes: Nubosidad parcial a 7000 pies sobre el nivel del aeródromo
Nubes: Nublado a 20000 pies sobre el nivel del aeródromo
Temperatura: 23 °C
Rocío: 20 °C
Humedad_relativa: 83%
Presión: 1013 hPa